Time;durP1;ratioP1;P1;durP2;ratioP2;P2;SDS_P1;SDS_P2;PMS_P1;PMS_P2;Temp;Humidity;BMP_temperature;BMP_pressure;BME280_temperature;BME280_humidity;BME280_pressure;Samples;Min_cycle;Max_cycle;Signal;HPM_P1;HPM_P2
2022/03/26 00:00:50;;;;;;;2.20;1.63;;;10.60;99.90;;;;;;5025793;28;20179;-84
2022/03/26 00:03:16;;;;;;;1.93;1.83;;;10.60;99.90;;;;;;5026894;28;20183;-86
2022/03/26 00:05:43;;;;;;;5.23;4.37;;;10.50;99.90;;;;;;5028210;28;20347;-84
2022/03/26 00:08:09;;;;;;;1.60;0.80;;;10.50;99.90;;;;;;5026926;28;20668;-84
2022/03/26 00:10:36;;;;;;;0.87;0.77;;;10.50;99.90;;;;;;5029675;28;20263;-84
2022/03/26 00:13:03;;;;;;;1.43;1.33;;;10.50;99.90;;;;;;5025805;28;20186;-84
2022/03/26 00:15:28;;;;;;;2.67;2.20;;;10.50;99.90;;;;;;5027320;28;20225;-84
2022/03/26 00:17:55;;;;;;;1.50;0.90;;;10.40;99.90;;;;;;5027129;28;20186;-84
2022/03/26 00:20:21;;;;;;;0.30;0.30;;;10.40;99.90;;;;;;5026869;28;20186;-84
2022/03/26 00:22:47;;;;;;;0.63;0.63;;;10.30;99.90;;;;;;5027221;28;20941;-84
2022/03/26 00:25:15;;;;;;;1.83;0.93;;;10.30;99.90;;;;;;5027261;28;20341;-84
2022/03/26 00:27:41;;;;;;;2.90;1.40;;;10.30;99.90;;;;;;5027259;28;20651;-83
2022/03/26 00:30:08;;;;;;;2.27;1.27;;;10.20;99.90;;;;;;5028055;28;20186;-84
2022/03/26 00:32:34;;;;;;;1.13;1.13;;;10.10;99.90;;;;;;5026747;28;20187;-84
2022/03/26 00:35:00;;;;;;;1.97;1.13;;;10.10;99.90;;;;;;5026614;28;20759;-84
2022/03/26 00:37:26;;;;;;;2.83;1.93;;;10.00;99.90;;;;;;5026441;28;20189;-84
2022/03/26 00:39:52;;;;;;;1.50;1.07;;;9.90;99.90;;;;;;5026772;28;20182;-84
2022/03/26 00:42:18;;;;;;;2.57;1.53;;;9.90;99.90;;;;;;5026178;28;20212;-82
2022/03/26 00:44:43;;;;;;;1.27;1.07;;;9.90;99.90;;;;;;5026351;28;20645;-86
2022/03/26 00:47:09;;;;;;;0.63;0.53;;;9.80;99.90;;;;;;5026270;28;20200;-84
2022/03/26 00:49:36;;;;;;;1.13;1.00;;;9.80;99.90;;;;;;5025095;28;20273;-85
2022/03/26 00:52:03;;;;;;;3.63;0.97;;;9.80;99.90;;;;;;5026342;28;20203;-84
2022/03/26 00:54:30;;;;;;;2.03;1.43;;;9.80;99.90;;;;;;5026022;28;20801;-84
2022/03/26 00:56:56;;;;;;;0.53;0.53;;;9.80;99.90;;;;;;5026534;28;20186;-86
2022/03/26 00:59:22;;;;;;;0.20;0.20;;;9.80;99.90;;;;;;5026428;28;20179;-84
2022/03/26 01:01:48;;;;;;;1.23;0.73;;;9.80;99.90;;;;;;5023801;28;20188;-84
2022/03/26 01:04:13;;;;;;;2.10;1.93;;;9.70;99.90;;;;;;5023826;28;20588;-84
2022/03/26 01:06:39;;;;;;;2.87;1.40;;;9.70;99.90;;;;;;5024735;28;20232;-84
2022/03/26 01:09:05;;;;;;;2.00;1.50;;;9.60;99.90;;;;;;5023029;28;20556;-84
2022/03/26 01:11:30;;;;;;;1.27;1.17;;;9.60;99.90;;;;;;5025650;28;20183;-84
2022/03/26 01:13:56;;;;;;;1.13;1.10;;;9.40;99.90;;;;;;5023414;28;20210;-84
2022/03/26 01:16:26;;;;;;;0.73;0.70;;;9.40;99.90;;;;;;5023774;28;20794;-83
2022/03/26 01:18:53;;;;;;;1.13;0.77;;;9.40;99.90;;;;;;5024235;28;20198;-84
2022/03/26 01:21:20;;;;;;;6.67;1.83;;;9.30;99.90;;;;;;5023514;28;20658;-86
2022/03/26 01:23:49;;;;;;;5.03;1.43;;;9.20;99.90;;;;;;5021881;28;20705;-84
2022/03/26 01:26:16;;;;;;;2.27;1.30;;;9.20;99.90;;;;;;5030901;28;20183;-84
2022/03/26 01:28:43;;;;;;;1.00;0.73;;;9.10;99.90;;;;;;5023444;28;20206;-84
2022/03/26 01:31:09;;;;;;;2.83;1.50;;;9.10;99.90;;;;;;5024380;28;20189;-84
2022/03/26 01:33:34;;;;;;;0.80;0.80;;;9.10;99.90;;;;;;5024257;28;20182;-84
2022/03/26 01:36:00;;;;;;;0.40;0.40;;;9.00;99.90;;;;;;5022503;28;20709;-84
2022/03/26 01:38:25;;;;;;;4.33;0.60;;;9.00;99.90;;;;;;5025979;28;20709;-84
2022/03/26 01:40:51;;;;;;;2.10;1.13;;;9.00;99.90;;;;;;5026804;28;20186;-85
2022/03/26 01:43:16;;;;;;;0.37;0.37;;;8.90;99.90;;;;;;5025764;28;20245;-84
2022/03/26 01:45:42;;;;;;;1.40;0.80;;;8.90;99.90;;;;;;5024106;28;20931;-84
2022/03/26 01:48:08;;;;;;;3.60;1.53;;;8.90;99.90;;;;;;5023962;28;20583;-84
2022/03/26 01:50:33;;;;;;;1.50;1.40;;;8.80;99.90;;;;;;5024331;28;20186;-85
2022/03/26 01:52:59;;;;;;;1.33;1.33;;;8.90;99.90;;;;;;5022364;28;20298;-84
2022/03/26 01:55:26;;;;;;;0.93;0.93;;;8.80;99.90;;;;;;5023189;28;20213;-84
2022/03/26 01:57:53;;;;;;;1.53;0.83;;;8.80;99.90;;;;;;5025108;28;20174;-84
2022/03/26 02:00:19;;;;;;;0.70;0.40;;;8.80;99.90;;;;;;5024105;28;20711;-86
2022/03/26 02:02:45;;;;;;;1.43;1.33;;;8.90;99.90;;;;;;5023982;28;20208;-84
2022/03/26 02:05:12;;;;;;;1.73;1.03;;;8.90;99.90;;;;;;5022902;28;20217;-84
2022/03/26 02:07:39;;;;;;;4.67;2.33;;;8.90;99.90;;;;;;5022970;28;20656;-84
2022/03/26 02:10:07;;;;;;;3.70;2.00;;;9.00;99.90;;;;;;5022107;28;20216;-83
2022/03/26 02:12:33;;;;;;;1.80;0.70;;;8.70;99.90;;;;;;5021972;28;20742;-84
2022/03/26 02:14:59;;;;;;;0.87;0.77;;;8.70;99.90;;;;;;5021582;28;20219;-84
2022/03/26 02:17:25;;;;;;;0.47;0.47;;;8.70;99.90;;;;;;5024775;28;20182;-84
2022/03/26 02:19:54;;;;;;;1.70;0.60;;;8.70;99.90;;;;;;5025356;28;20578;-84
2022/03/26 02:22:22;;;;;;;5.00;1.83;;;8.80;99.90;;;;;;5023004;28;20182;-84
2022/03/26 02:24:49;;;;;;;0.93;0.50;;;8.70;99.90;;;;;;5020514;28;20239;-87
2022/03/26 02:27:15;;;;;;;0.93;0.70;;;8.70;99.90;;;;;;5023867;28;21980;-84
2022/03/26 02:29:40;;;;;;;1.80;1.40;;;8.70;99.90;;;;;;5022248;28;20183;-84
2022/03/26 02:32:07;;;;;;;0.97;0.97;;;8.80;99.90;;;;;;5022905;28;20266;-86
2022/03/26 02:34:33;;;;;;;2.13;1.17;;;8.90;99.90;;;;;;5016835;28;20216;-84
2022/03/26 02:36:59;;;;;;;2.80;0.97;;;8.80;99.90;;;;;;5021513;28;20189;-86
2022/03/26 02:39:25;;;;;;;1.47;0.97;;;8.70;99.90;;;;;;5024048;28;20181;-83
2022/03/26 02:41:51;;;;;;;1.77;0.90;;;8.60;99.90;;;;;;5023325;28;20263;-84
2022/03/26 02:44:17;;;;;;;1.47;0.97;;;8.40;99.90;;;;;;5021579;28;20241;-86
2022/03/26 02:46:45;;;;;;;5.03;2.87;;;8.30;99.90;;;;;;5024002;28;20196;-84
2022/03/26 02:49:12;;;;;;;1.03;1.03;;;8.20;99.90;;;;;;5021761;28;20190;-84
2022/03/26 02:51:37;;;;;;;1.47;1.37;;;8.20;99.90;;;;;;5019937;28;20189;-85
2022/03/26 02:54:03;;;;;;;1.23;1.23;;;8.20;99.90;;;;;;5022829;28;20240;-84
2022/03/26 02:56:29;;;;;;;1.00;0.97;;;8.20;99.90;;;;;;5023380;28;20272;-84
2022/03/26 02:58:54;;;;;;;1.33;0.87;;;8.20;99.90;;;;;;5024394;28;20186;-84
2022/03/26 03:01:20;;;;;;;3.23;1.40;;;8.20;99.90;;;;;;5021642;28;20189;-84
2022/03/26 03:03:45;;;;;;;2.60;1.87;;;8.20;99.90;;;;;;5022220;28;20218;-86
2022/03/26 03:06:11;;;;;;;2.83;2.17;;;8.20;99.90;;;;;;5020380;28;20735;-84
2022/03/26 03:08:37;;;;;;;9.43;2.33;;;8.20;99.90;;;;;;5021701;28;20196;-84
2022/03/26 03:11:03;;;;;;;1.70;1.30;;;8.20;99.90;;;;;;5022497;28;20200;-84
2022/03/26 03:13:28;;;;;;;0.97;0.87;;;8.10;99.90;;;;;;5022310;28;20548;-84
2022/03/26 03:15:54;;;;;;;0.53;0.53;;;8.10;99.90;;;;;;5021906;28;20577;-86
2022/03/26 03:18:19;;;;;;;0.63;0.40;;;8.00;99.90;;;;;;5021747;28;20232;-83
2022/03/26 03:20:45;;;;;;;0.87;0.87;;;7.90;99.90;;;;;;5022302;28;20183;-86
2022/03/26 03:23:13;;;;;;;2.00;1.00;;;7.90;99.90;;;;;;5023276;28;20180;-84
2022/03/26 03:25:39;;;;;;;0.67;0.67;;;7.90;99.90;;;;;;5024013;28;20206;-84
2022/03/26 03:28:05;;;;;;;5.67;1.47;;;7.80;99.90;;;;;;5026629;28;20188;-84
2022/03/26 03:30:30;;;;;;;2.87;1.33;;;7.90;99.90;;;;;;5024416;28;20320;-84
2022/03/26 03:33:00;;;;;;;1.17;1.07;;;7.90;99.90;;;;;;5026598;28;20280;-84
2022/03/26 03:35:25;;;;;;;2.27;0.97;;;8.00;99.90;;;;;;5025571;28;20574;-84
2022/03/26 03:37:51;;;;;;;3.40;2.33;;;8.10;99.90;;;;;;5026513;28;20186;-84
2022/03/26 03:40:17;;;;;;;1.20;0.73;;;8.10;99.90;;;;;;5026577;28;20188;-86
2022/03/26 03:42:44;;;;;;;2.23;2.13;;;8.10;99.90;;;;;;5027108;28;20198;-84
2022/03/26 03:45:10;;;;;;;1.00;1.00;;;8.00;99.90;;;;;;5025554;28;20209;-84
2022/03/26 03:47:37;;;;;;;1.23;1.13;;;7.90;99.90;;;;;;5024014;28;20189;-84
2022/03/26 03:50:04;;;;;;;2.77;2.63;;;7.90;99.90;;;;;;5028049;28;20192;-84
2022/03/26 03:52:29;;;;;;;2.60;1.10;;;7.80;99.90;;;;;;5026374;28;20681;-84
2022/03/26 03:54:55;;;;;;;1.00;0.80;;;7.80;99.90;;;;;;5027559;28;20212;-84
2022/03/26 03:57:20;;;;;;;1.40;1.30;;;8.00;99.90;;;;;;5027051;28;20179;-85
2022/03/26 03:59:46;;;;;;;1.73;1.43;;;8.00;99.90;;;;;;5026092;28;20178;-84
2022/03/26 04:02:12;;;;;;;1.33;1.23;;;7.90;99.90;;;;;;5024461;28;20595;-84
2022/03/26 04:04:39;;;;;;;1.77;1.23;;;8.00;99.90;;;;;;5025452;28;20210;-84
2022/03/26 04:07:05;;;;;;;3.07;2.17;;;8.00;99.90;;;;;;5023808;28;20209;-84
2022/03/26 04:09:30;;;;;;;1.07;0.97;;;8.10;99.90;;;;;;5028102;28;20196;-85
2022/03/26 04:11:56;;;;;;;2.70;1.80;;;8.10;99.90;;;;;;5026051;28;20180;-84
2022/03/26 04:14:21;;;;;;;2.03;1.53;;;8.20;99.90;;;;;;5025505;28;20214;-84
2022/03/26 04:16:47;;;;;;;2.20;2.10;;;8.30;99.90;;;;;;5026180;28;20804;-84
2022/03/26 04:19:13;;;;;;;3.93;1.50;;;8.40;99.90;;;;;;5027615;28;20267;-83
2022/03/26 04:21:39;;;;;;;1.97;1.60;;;8.50;99.90;;;;;;5027350;28;20180;-84
2022/03/26 04:24:05;;;;;;;3.67;1.77;;;8.60;99.90;;;;;;5028347;28;20218;-84
2022/03/26 04:26:30;;;;;;;6.20;1.80;;;8.70;99.90;;;;;;5026167;28;20779;-84
2022/03/26 04:28:56;;;;;;;1.17;1.07;;;8.80;99.90;;;;;;5027752;28;20272;-84
2022/03/26 04:31:21;;;;;;;2.73;2.53;;;8.90;99.90;;;;;;5026614;28;20190;-87
2022/03/26 04:33:47;;;;;;;3.80;2.93;;;9.00;99.90;;;;;;5027160;28;20708;-84
2022/03/26 04:36:12;;;;;;;2.07;1.97;;;9.10;99.90;;;;;;5026038;28;20186;-86
2022/03/26 04:38:38;;;;;;;1.47;1.37;;;9.10;99.90;;;;;;5026644;28;20182;-84
2022/03/26 04:41:04;;;;;;;3.07;1.43;;;9.10;99.90;;;;;;5026830;28;20906;-84
2022/03/26 04:43:29;;;;;;;4.40;2.17;;;9.00;99.90;;;;;;5027224;28;20207;-83
2022/03/26 04:45:55;;;;;;;2.37;2.17;;;9.10;99.90;;;;;;5026145;28;20237;-85
2022/03/26 04:48:20;;;;;;;1.33;1.23;;;9.10;99.90;;;;;;5028531;28;20190;-84
2022/03/26 04:50:46;;;;;;;1.70;0.93;;;9.10;99.90;;;;;;5028229;28;20586;-84
2022/03/26 04:53:13;;;;;;;2.37;2.17;;;9.00;99.90;;;;;;5026059;28;20475;-84
2022/03/26 04:55:39;;;;;;;1.43;1.30;;;9.00;99.90;;;;;;5027760;28;20208;-84
2022/03/26 04:58:04;;;;;;;3.40;1.63;;;9.00;99.90;;;;;;5026232;28;20320;-84
2022/03/26 05:00:30;;;;;;;4.87;4.10;;;9.00;99.90;;;;;;5027304;28;20181;-83
2022/03/26 05:02:57;;;;;;;1.50;1.40;;;9.00;99.90;;;;;;5025785;28;20192;-84
2022/03/26 05:05:22;;;;;;;3.20;1.30;;;8.90;99.90;;;;;;5025975;28;20252;-84
2022/03/26 05:07:48;;;;;;;2.00;1.43;;;9.00;99.90;;;;;;5025706;28;20212;-84
2022/03/26 05:10:22;;;;;;;0.90;0.77;;;8.90;99.90;;;;;;5026131;28;20181;-84
2022/03/26 05:12:49;;;;;;;0.80;0.77;;;8.90;99.90;;;;;;5025543;28;20677;-84
2022/03/26 05:15:16;;;;;;;2.83;1.83;;;8.90;99.90;;;;;;5026122;28;20690;-84
2022/03/26 05:17:41;;;;;;;2.23;2.07;;;8.80;99.90;;;;;;5025209;28;20249;-84
2022/03/26 05:20:08;;;;;;;2.10;1.90;;;8.80;99.90;;;;;;5026626;28;20185;-84
2022/03/26 05:22:35;;;;;;;2.20;1.40;;;8.80;99.90;;;;;;5025741;28;20209;-84
2022/03/26 05:25:01;;;;;;;1.30;1.20;;;8.90;99.90;;;;;;5025221;28;20643;-84
2022/03/26 05:27:26;;;;;;;11.63;2.93;;;8.90;99.90;;;;;;5025529;28;20272;-85
2022/03/26 05:29:52;;;;;;;3.50;3.20;;;9.00;99.90;;;;;;5025701;28;20186;-83
2022/03/26 05:32:19;;;;;;;2.23;1.60;;;9.00;99.90;;;;;;5027081;28;20730;-83
2022/03/26 05:34:44;;;;;;;2.10;1.57;;;9.00;99.90;;;;;;5023851;28;20220;-84
2022/03/26 05:37:11;;;;;;;2.80;2.20;;;9.00;99.90;;;;;;5025308;28;20184;-84
2022/03/26 05:39:36;;;;;;;1.43;1.27;;;9.00;99.90;;;;;;5025905;28;20174;-84
2022/03/26 05:42:02;;;;;;;1.47;1.40;;;9.00;99.90;;;;;;5034438;28;21200;-84
2022/03/26 05:44:28;;;;;;;1.90;1.30;;;9.00;99.90;;;;;;5024712;28;20251;-84
2022/03/26 05:46:53;;;;;;;4.20;1.20;;;9.00;99.90;;;;;;5024869;28;20182;-85
2022/03/26 05:49:19;;;;;;;2.03;1.80;;;9.00;99.90;;;;;;5024075;28;20193;-84
2022/03/26 05:51:45;;;;;;;2.30;1.50;;;9.10;99.90;;;;;;5026182;28;20576;-84
2022/03/26 05:54:12;;;;;;;3.57;2.77;;;9.10;99.90;;;;;;5024161;28;20216;-85
2022/03/26 05:56:38;;;;;;;4.10;1.67;;;9.10;99.90;;;;;;5024376;28;20214;-86
2022/03/26 05:59:10;;;;;;;7.10;1.30;;;9.10;99.90;;;;;;5027878;28;20672;-84
2022/03/26 06:01:36;;;;;;;0.83;0.83;;;9.10;99.90;;;;;;5028332;28;20174;-84
2022/03/26 06:04:02;;;;;;;0.70;0.70;;;9.20;99.90;;;;;;5026070;28;20269;-84
2022/03/26 06:06:28;;;;;;;3.57;3.17;;;9.30;99.90;;;;;;5027089;28;20212;-84
2022/03/26 06:08:54;;;;;;;1.73;1.33;;;9.30;99.90;;;;;;5031737;28;20175;-84
2022/03/26 06:11:20;;;;;;;2.97;2.67;;;9.40;99.90;;;;;;5026131;28;20305;-84
2022/03/26 06:13:45;;;;;;;1.70;1.60;;;9.40;99.90;;;;;;5025909;28;20664;-84
2022/03/26 06:16:11;;;;;;;1.27;0.83;;;9.50;99.90;;;;;;5023598;28;20187;-84
2022/03/26 06:18:37;;;;;;;1.93;1.17;;;9.70;99.90;;;;;;5022296;28;20291;-82
2022/03/26 06:21:05;;;;;;;1.20;0.87;;;9.80;99.90;;;;;;5021061;28;20335;-82
2022/03/26 06:23:31;;;;;;;6.47;1.70;;;9.90;99.90;;;;;;5020998;28;20179;-83
2022/03/26 06:25:57;;;;;;;1.03;0.90;;;10.00;99.90;;;;;;5022441;28;20190;-83
2022/03/26 06:28:23;;;;;;;3.67;1.47;;;10.10;99.90;;;;;;5025817;28;20190;-82
2022/03/26 06:30:49;;;;;;;6.67;1.60;;;10.30;99.90;;;;;;5021707;28;20182;-82
2022/03/26 06:33:16;;;;;;;2.13;1.73;;;10.40;99.90;;;;;;5021606;28;20687;-82
2022/03/26 06:35:43;;;;;;;0.90;0.70;;;10.50;99.90;;;;;;5020018;28;20273;-84
2022/03/26 06:38:09;;;;;;;0.60;0.60;;;10.70;99.90;;;;;;5025209;28;20193;-83
2022/03/26 06:40:35;;;;;;;2.87;0.80;;;10.90;99.90;;;;;;5029382;28;20261;-83
2022/03/26 06:43:01;;;;;;;2.17;2.00;;;11.00;99.90;;;;;;5027632;28;20708;-83
2022/03/26 06:45:26;;;;;;;2.37;1.43;;;11.20;99.90;;;;;;5025828;28;20206;-83
2022/03/26 06:47:52;;;;;;;3.70;1.13;;;11.20;99.90;;;;;;5027853;28;20179;-82
2022/03/26 06:50:18;;;;;;;3.40;1.87;;;11.20;99.90;;;;;;5026330;28;20691;-82
2022/03/26 06:52:43;;;;;;;2.60;2.27;;;11.30;99.90;;;;;;5027651;28;20182;-82
2022/03/26 06:55:09;;;;;;;1.67;1.57;;;11.40;99.90;;;;;;5029684;28;20199;-82
2022/03/26 06:57:35;;;;;;;4.80;2.77;;;11.40;99.90;;;;;;5032491;28;20187;-82
2022/03/26 07:00:00;;;;;;;2.37;2.03;;;11.40;99.90;;;;;;5031980;28;20882;-82
2022/03/26 07:02:26;;;;;;;3.83;1.73;;;11.50;99.90;;;;;;5035142;28;20190;-82
2022/03/26 07:04:51;;;;;;;6.60;4.50;;;11.60;99.90;;;;;;5036256;28;20202;-82
2022/03/26 07:07:17;;;;;;;7.13;3.03;;;11.80;99.90;;;;;;5034397;28;20190;-82
2022/03/26 07:09:42;;;;;;;2.37;2.17;;;11.70;99.90;;;;;;5035878;28;20186;-82
2022/03/26 07:12:08;;;;;;;5.00;3.57;;;12.00;99.90;;;;;;5034408;28;20186;-82
2022/03/26 07:14:34;;;;;;;4.10;2.53;;;12.10;99.90;;;;;;5032680;28;20215;-82
2022/03/26 07:17:00;;;;;;;1.73;1.47;;;12.10;99.90;;;;;;5034147;28;20212;-82
2022/03/26 07:19:25;;;;;;;4.23;3.07;;;12.20;99.90;;;;;;5033180;28;20183;-81
2022/03/26 07:21:51;;;;;;;2.13;1.73;;;12.40;99.90;;;;;;5034030;28;20209;-82
2022/03/26 07:24:16;;;;;;;6.50;3.57;;;12.50;99.90;;;;;;5034320;28;20261;-82
2022/03/26 07:26:42;;;;;;;3.43;2.53;;;12.60;99.90;;;;;;5032969;28;20187;-82
2022/03/26 07:29:08;;;;;;;3.43;2.73;;;12.70;99.90;;;;;;5032217;28;20194;-82
2022/03/26 07:31:34;;;;;;;4.20;3.80;;;12.90;99.90;;;;;;5031347;28;20310;-82
2022/03/26 07:33:59;;;;;;;3.70;2.70;;;12.80;99.90;;;;;;5032542;28;20233;-82
2022/03/26 07:36:25;;;;;;;3.00;2.50;;;12.90;99.90;;;;;;5030999;28;20184;-82
2022/03/26 07:38:51;;;;;;;12.30;2.87;;;13.00;99.90;;;;;;5033235;28;20177;-82
2022/03/26 07:41:17;;;;;;;3.00;2.13;;;13.20;99.90;;;;;;5032694;28;20190;-82
2022/03/26 07:43:42;;;;;;;3.67;2.90;;;13.20;99.90;;;;;;5031647;28;20260;-83
2022/03/26 07:46:08;;;;;;;6.33;3.13;;;13.40;99.90;;;;;;5026033;28;20221;-82
2022/03/26 07:48:34;;;;;;;7.17;3.27;;;13.20;99.90;;;;;;5030063;28;20194;-82
2022/03/26 07:51:00;;;;;;;4.60;3.63;;;13.30;99.90;;;;;;5026331;28;20194;-82
2022/03/26 07:53:29;;;;;;;3.23;2.37;;;13.50;99.90;;;;;;5030470;28;20193;-82
2022/03/26 07:55:55;;;;;;;3.80;1.60;;;13.50;99.90;;;;;;5031345;28;20202;-83
2022/03/26 07:58:21;;;;;;;4.47;3.03;;;13.60;99.90;;;;;;5029305;28;20180;-83
2022/03/26 08:00:46;;;;;;;2.70;2.47;;;13.80;99.90;;;;;;5029564;28;20184;-83
2022/03/26 08:03:13;;;;;;;8.20;4.10;;;14.10;99.90;;;;;;5031229;28;20209;-83
2022/03/26 08:05:39;;;;;;;3.87;2.53;;;13.90;99.90;;;;;;5035898;28;20601;-82
2022/03/26 08:08:05;;;;;;;3.53;2.27;;;13.90;99.90;;;;;;5028827;28;20185;-83
2022/03/26 08:10:30;;;;;;;7.13;3.43;;;13.90;99.90;;;;;;5030249;28;20185;-83
2022/03/26 08:12:56;;;;;;;8.97;2.67;;;14.20;99.90;;;;;;5025434;28;20194;-82
2022/03/26 08:15:21;;;;;;;2.53;1.93;;;14.10;99.90;;;;;;5027203;28;20232;-81
2022/03/26 08:17:47;;;;;;;4.50;3.47;;;14.10;99.90;;;;;;5027938;28;20205;-83
2022/03/26 08:20:12;;;;;;;4.77;2.43;;;14.50;99.90;;;;;;5027907;28;20193;-83
2022/03/26 08:22:41;;;;;;;4.83;3.90;;;14.70;99.90;;;;;;5027384;28;20671;-83
2022/03/26 08:25:09;;;;;;;4.03;2.00;;;14.80;99.90;;;;;;5025826;28;20228;-83
2022/03/26 08:27:36;;;;;;;3.23;2.23;;;14.80;99.90;;;;;;5028468;28;20249;-83
2022/03/26 08:30:02;;;;;;;4.70;2.53;;;14.80;99.90;;;;;;5027358;28;20201;-83
2022/03/26 08:32:28;;;;;;;3.80;2.57;;;15.10;99.90;;;;;;5025874;28;20281;-83
2022/03/26 08:34:53;;;;;;;9.47;2.70;;;15.20;99.90;;;;;;5025404;28;20360;-82
2022/03/26 08:37:19;;;;;;;3.23;2.73;;;15.20;99.90;;;;;;5025192;28;20269;-81
2022/03/26 08:39:44;;;;;;;4.00;2.57;;;14.80;99.90;;;;;;5024132;28;20247;-81
2022/03/26 08:42:10;;;;;;;4.43;2.00;;;14.90;99.90;;;;;;5024281;28;20607;-84
2022/03/26 08:44:36;;;;;;;2.80;2.53;;;15.10;99.90;;;;;;5027347;28;20236;-83
2022/03/26 08:47:04;;;;;;;5.87;2.43;;;15.20;99.90;;;;;;5028000;28;20205;-84
2022/03/26 08:49:30;;;;;;;5.37;4.90;;;14.90;99.90;;;;;;5034866;28;20210;-84
2022/03/26 08:51:56;;;;;;;4.80;3.47;;;14.90;99.90;;;;;;5028786;28;20206;-83
2022/03/26 08:54:21;;;;;;;6.03;2.27;;;15.00;99.90;;;;;;5028059;28;20468;-84
2022/03/26 08:56:47;;;;;;;5.93;2.47;;;15.00;99.90;;;;;;5027906;28;20274;-83
2022/03/26 08:59:13;;;;;;;6.60;4.03;;;15.30;99.90;;;;;;5028854;28;20223;-83
2022/03/26 09:01:39;;;;;;;3.73;3.03;;;15.40;99.90;;;;;;5028599;28;20189;-83
2022/03/26 09:04:04;;;;;;;4.57;2.40;;;15.30;99.90;;;;;;5034827;28;20205;-83
2022/03/26 09:06:30;;;;;;;3.53;1.53;;;15.50;99.90;;;;;;5028128;28;20213;-84
2022/03/26 09:08:55;;;;;;;3.10;1.97;;;15.60;99.90;;;;;;5028180;28;20196;-84
2022/03/26 09:11:21;;;;;;;2.53;1.60;;;15.90;99.90;;;;;;5027030;28;20205;-83
2022/03/26 09:13:46;;;;;;;8.17;3.40;;;16.10;99.90;;;;;;5028050;28;20198;-84
2022/03/26 09:16:12;;;;;;;7.10;3.97;;;15.70;99.90;;;;;;5026984;28;20210;-83
2022/03/26 09:18:38;;;;;;;7.77;4.73;;;15.70;99.90;;;;;;5027967;28;20186;-83
2022/03/26 09:21:04;;;;;;;4.37;3.20;;;15.50;99.90;;;;;;5026287;28;20182;-83
2022/03/26 09:23:30;;;;;;;5.80;3.37;;;15.80;99.90;;;;;;5026134;28;20202;-83
2022/03/26 09:25:56;;;;;;;6.30;3.80;;;16.00;99.90;;;;;;5026902;28;20185;-83
2022/03/26 09:28:21;;;;;;;4.87;2.90;;;16.10;99.90;;;;;;5028012;28;20187;-84
2022/03/26 09:30:47;;;;;;;14.70;3.03;;;16.00;99.90;;;;;;5027140;28;20205;-83
2022/03/26 09:33:13;;;;;;;4.60;2.90;;;16.20;99.90;;;;;;5026331;28;20187;-84
2022/03/26 09:35:38;;;;;;;6.67;3.47;;;16.30;99.90;;;;;;5029126;28;20222;-84
2022/03/26 09:38:04;;;;;;;5.67;3.90;;;16.10;99.90;;;;;;5024479;28;20178;-83
2022/03/26 09:40:32;;;;;;;2.97;2.40;;;16.20;99.90;;;;;;5025659;28;20214;-84
2022/03/26 09:42:57;;;;;;;9.23;4.60;;;16.20;99.90;;;;;;5024270;28;20175;-83
2022/03/26 09:45:23;;;;;;;4.20;2.27;;;16.20;99.90;;;;;;5025490;28;20215;-82
2022/03/26 09:47:49;;;;;;;1.43;1.33;;;16.20;99.90;;;;;;5023183;28;20182;-82
2022/03/26 09:50:15;;;;;;;8.50;2.97;;;16.50;99.90;;;;;;5023293;28;20187;-83
2022/03/26 09:52:41;;;;;;;4.80;3.30;;;16.70;99.90;;;;;;5024010;28;20261;-82
2022/03/26 09:55:11;;;;;;;6.20;2.50;;;16.80;99.90;;;;;;5023668;28;20237;-81
2022/03/26 09:57:38;;;;;;;6.97;4.37;;;16.70;99.90;;;;;;5022447;28;20182;-81
2022/03/26 10:00:04;;;;;;;12.63;2.83;;;16.30;99.90;;;;;;5024060;28;20191;-81
2022/03/26 10:02:29;;;;;;;8.27;4.63;;;16.50;99.90;;;;;;5024016;28;20648;-81
2022/03/26 10:04:55;;;;;;;3.53;2.37;;;16.40;99.90;;;;;;5027249;28;20216;-83
2022/03/26 10:07:29;;;;;;;5.30;3.90;;;16.60;99.90;;;;;;5027977;28;20191;-84
2022/03/26 10:09:55;;;;;;;5.73;2.77;;;16.50;99.90;;;;;;5037359;28;20190;-81
2022/03/26 10:12:22;;;;;;;6.93;3.10;;;16.90;99.90;;;;;;5026108;28;20368;-82
2022/03/26 10:14:51;;;;;;;5.50;2.67;;;16.70;99.90;;;;;;5027417;28;20206;-83
2022/03/26 10:17:24;;;;;;;4.30;2.23;;;16.50;99.90;;;;;;5028321;28;20605;-84
2022/03/26 10:19:51;;;;;;;4.10;2.93;;;16.80;99.90;;;;;;5025859;28;20189;-83
2022/03/26 10:22:38;;;;;;;6.40;3.43;;;17.00;99.90;;;;;;5026643;28;20930;-83
2022/03/26 10:25:12;;;;;;;3.27;3.03;;;16.90;99.90;;;;;;5025658;28;20304;-84
2022/03/26 10:27:39;;;;;;;6.53;4.33;;;17.10;99.90;;;;;;5023310;28;20235;-84
2022/03/26 10:30:06;;;;;;;12.53;5.33;;;17.00;99.90;;;;;;5024602;28;20202;-84
2022/03/26 10:32:41;;;;;;;3.00;2.70;;;17.20;99.90;;;;;;5026863;28;20663;-83
2022/03/26 10:35:13;;;;;;;12.50;6.10;;;17.30;99.90;;;;;;5022312;28;20288;-84
2022/03/26 10:37:58;;;;;;;5.17;4.33;;;17.70;99.90;;;;;;5024492;28;20384;-82
2022/03/26 10:40:27;;;;;;;6.70;5.33;;;18.20;99.90;;;;;;5022925;28;20655;-83
2022/03/26 10:43:12;;;;;;;3.93;2.40;;;17.20;99.90;;;;;;5023328;28;20185;-84
2022/03/26 10:45:52;;;;;;;6.73;3.33;;;17.90;99.90;;;;;;5022882;28;20997;-84
2022/03/26 10:48:27;;;;;;;3.80;3.07;;;17.70;99.90;;;;;;5022897;28;20205;-83
2022/03/26 10:51:00;;;;;;;6.20;2.53;;;17.60;99.90;;;;;;5022745;28;20189;-84
2022/03/26 10:53:34;;;;;;;6.20;2.80;;;18.10;99.90;;;;;;5022803;28;21619;-84
2022/03/26 10:56:02;;;;;;;8.00;2.60;;;18.50;99.90;;;;;;5021025;28;20207;-82
2022/03/26 10:58:27;;;;;;;4.63;1.83;;;18.30;99.90;;;;;;5021331;28;20182;-84
2022/03/26 11:00:53;;;;;;;10.47;2.80;;;18.20;99.90;;;;;;5021041;28;20193;-83
2022/03/26 11:03:19;;;;;;;5.47;1.93;;;17.70;99.90;;;;;;5022397;28;20265;-83
2022/03/26 11:05:46;;;;;;;5.63;2.77;;;17.70;99.90;;;;;;5022405;28;20230;-84
2022/03/26 11:08:13;;;;;;;5.60;2.57;;;17.50;99.90;;;;;;5022289;28;20240;-83
2022/03/26 11:10:40;;;;;;;2.00;1.60;;;17.10;99.90;;;;;;5022221;28;20228;-83
2022/03/26 11:13:10;;;;;;;9.30;1.60;;;17.50;99.90;;;;;;5021257;28;20725;-84
2022/03/26 11:15:44;;;;;;;2.70;1.07;;;17.40;99.90;;;;;;5020187;28;20210;-84
2022/03/26 11:18:25;;;;;;;1.87;1.20;;;17.80;99.90;;;;;;5024808;28;20244;-84
2022/03/26 11:21:15;;;;;;;3.27;2.00;;;18.00;99.90;;;;;;5023572;28;20208;-83
2022/03/26 11:23:53;;;;;;;5.20;1.70;;;18.40;99.90;;;;;;5021541;28;20207;-84
2022/03/26 11:26:37;;;;;;;1.80;1.10;;;18.30;99.90;;;;;;5023534;28;20253;-83
2022/03/26 11:29:35;;;;;;;2.63;2.30;;;17.70;99.90;;;;;;5024532;28;20178;-83
2022/03/26 11:32:15;;;;;;;2.63;2.43;;;18.10;99.90;;;;;;5023707;28;20317;-83
2022/03/26 11:34:41;;;;;;;6.10;3.27;;;18.20;99.90;;;;;;5024621;28;20202;-83
2022/03/26 11:37:20;;;;;;;3.60;2.47;;;18.20;99.90;;;;;;5025468;28;20186;-83
2022/03/26 11:39:48;;;;;;;5.00;1.27;;;18.40;99.90;;;;;;5035835;28;20687;-83
2022/03/26 11:42:14;;;;;;;1.17;1.17;;;18.20;99.90;;;;;;5025528;28;20186;-83
2022/03/26 11:50:41;;;;;;;2.60;2.23;;;18.50;99.90;;;;;;5025445;28;20324;-83
2022/03/26 11:53:10;;;;;;;3.27;2.93;;;18.40;99.90;;;;;;5029538;28;20565;-83
2022/03/26 11:55:47;;;;;;;2.90;2.23;;;18.50;99.90;;;;;;5029357;28;20202;-84
2022/03/26 11:58:26;;;;;;;4.70;2.93;;;18.40;99.90;;;;;;5029731;28;20175;-83
2022/03/26 12:01:04;;;;;;;4.47;3.13;;;18.20;99.90;;;;;;5026980;28;20185;-83
2022/03/26 12:03:42;;;;;;;5.43;3.37;;;18.10;99.90;;;;;;5025884;28;20171;-83
2022/03/26 12:08:56;;;;;;;4.80;2.40;;;18.10;99.90;;;;;;5028487;28;20260;-83
2022/03/26 12:11:31;;;;;;;1.53;1.43;;;18.00;99.90;;;;;;5029509;28;20189;-83
2022/03/26 12:14:08;;;;;;;3.13;2.10;;;18.30;99.90;;;;;;5028800;28;20205;-83
2022/03/26 12:16:49;;;;;;;2.00;0.97;;;18.40;99.90;;;;;;5026874;28;20203;-83
2022/03/26 12:19:39;;;;;;;3.30;1.03;;;18.20;99.90;;;;;;5030960;28;20630;-84
2022/03/26 12:22:23;;;;;;;2.43;2.23;;;18.40;99.90;;;;;;5027888;28;20182;-82
2022/03/26 12:24:50;;;;;;;2.97;2.23;;;18.70;99.90;;;;;;5027597;28;20220;-82
2022/03/26 12:27:17;;;;;;;6.23;3.87;;;18.40;99.90;;;;;;5027800;28;20190;-83
2022/03/26 12:29:43;;;;;;;3.80;1.63;;;18.00;99.90;;;;;;5027520;28;20186;-83
2022/03/26 12:32:09;;;;;;;3.73;2.43;;;18.40;99.90;;;;;;5027349;28;20182;-82
2022/03/26 12:35:09;;;;;;;4.13;1.87;;;18.60;99.90;;;;;;5027022;28;20214;-84
2022/03/26 12:37:35;;;;;;;3.13;2.77;;;18.40;99.90;;;;;;5027590;28;21155;-82
2022/03/26 12:40:05;;;;;;;2.20;1.97;;;18.80;99.90;;;;;;5027350;28;20209;-85
2022/03/26 12:42:31;;;;;;;4.70;1.30;;;18.60;99.90;;;;;;5024540;28;20528;-83
2022/03/26 12:44:56;;;;;;;2.47;2.23;;;18.60;99.90;;;;;;5029188;28;20222;-83
2022/03/26 12:47:25;;;;;;;2.37;1.57;;;18.20;99.90;;;;;;5026918;28;20236;-84
2022/03/26 12:49:54;;;;;;;2.30;2.10;;;18.30;99.90;;;;;;5025886;28;20179;-83
2022/03/26 12:52:22;;;;;;;2.87;1.60;;;18.70;99.90;;;;;;5025836;28;20179;-84
2022/03/26 12:54:59;;;;;;;2.83;1.67;;;19.10;99.90;;;;;;5028541;28;20710;-84
2022/03/26 12:58:56;;;;;;;8.53;2.07;;;18.60;99.90;;;;;;5024359;28;20179;-84
2022/03/26 13:00:12;;;;;;;2.27;1.13;;;19.00;99.90;;;;;;5025562;28;20213;-83